sensor_id;sensor_type;location;lat;lon;timestamp;P1;durP1;ratioP1;P2;durP2;ratioP2
26486;SDS011;14425;56.136;40.360;2023-04-24T00:02:13;7.72;;;5.45;;
26486;SDS011;14425;56.136;40.360;2023-04-24T00:04:39;9.70;;;5.78;;
26486;SDS011;14425;56.136;40.360;2023-04-24T00:07:05;8.32;;;6.32;;
26486;SDS011;14425;56.136;40.360;2023-04-24T00:09:32;10.48;;;6.00;;
26486;SDS011;14425;56.136;40.360;2023-04-24T00:11:58;9.98;;;6.22;;
26486;SDS011;14425;56.136;40.360;2023-04-24T00:14:24;10.60;;;6.00;;
26486;SDS011;14425;56.136;40.360;2023-04-24T00:16:50;11.95;;;6.38;;
26486;SDS011;14425;56.136;40.360;2023-04-24T00:19:15;8.50;;;5.55;;
26486;SDS011;14425;56.136;40.360;2023-04-24T00:21:41;7.78;;;6.05;;
26486;SDS011;14425;56.136;40.360;2023-04-24T00:24:07;8.48;;;5.72;;
26486;SDS011;14425;56.136;40.360;2023-04-24T00:26:36;7.75;;;6.10;;
26486;SDS011;14425;56.136;40.360;2023-04-24T00:29:01;12.52;;;6.20;;
26486;SDS011;14425;56.136;40.360;2023-04-24T00:31:27;7.97;;;6.10;;
26486;SDS011;14425;56.136;40.360;2023-04-24T00:33:55;8.82;;;6.05;;
26486;SDS011;14425;56.136;40.360;2023-04-24T00:36:21;10.20;;;5.97;;
26486;SDS011;14425;56.136;40.360;2023-04-24T00:38:47;9.60;;;6.22;;
26486;SDS011;14425;56.136;40.360;2023-04-24T00:41:12;10.18;;;6.40;;
26486;SDS011;14425;56.136;40.360;2023-04-24T00:43:38;8.38;;;6.53;;
26486;SDS011;14425;56.136;40.360;2023-04-24T00:46:04;9.70;;;6.63;;
26486;SDS011;14425;56.136;40.360;2023-04-24T00:48:30;7.80;;;5.75;;
26486;SDS011;14425;56.136;40.360;2023-04-24T00:50:57;7.88;;;5.88;;
26486;SDS011;14425;56.136;40.360;2023-04-24T00:53:23;8.10;;;5.88;;
26486;SDS011;14425;56.136;40.360;2023-04-24T00:55:49;8.57;;;6.15;;
26486;SDS011;14425;56.136;40.360;2023-04-24T00:58:15;9.40;;;5.85;;
26486;SDS011;14425;56.136;40.360;2023-04-24T01:00:41;11.95;;;6.38;;
26486;SDS011;14425;56.136;40.360;2023-04-24T01:03:06;10.50;;;5.93;;
26486;SDS011;14425;56.136;40.360;2023-04-24T01:05:32;7.03;;;5.13;;
26486;SDS011;14425;56.136;40.360;2023-04-24T01:07:58;8.82;;;5.85;;
26486;SDS011;14425;56.136;40.360;2023-04-24T01:10:25;11.00;;;6.47;;
26486;SDS011;14425;56.136;40.360;2023-04-24T01:12:52;11.60;;;5.60;;
26486;SDS011;14425;56.136;40.360;2023-04-24T01:15:18;8.38;;;5.93;;
26486;SDS011;14425;56.136;40.360;2023-04-24T01:17:44;9.85;;;5.82;;
26486;SDS011;14425;56.136;40.360;2023-04-24T01:20:10;7.90;;;5.90;;
26486;SDS011;14425;56.136;40.360;2023-04-24T01:22:35;10.18;;;5.95;;
26486;SDS011;14425;56.136;40.360;2023-04-24T01:25:02;7.70;;;6.03;;
26486;SDS011;14425;56.136;40.360;2023-04-24T01:27:30;9.10;;;6.35;;
26486;SDS011;14425;56.136;40.360;2023-04-24T01:29:55;7.32;;;5.20;;
26486;SDS011;14425;56.136;40.360;2023-04-24T01:32:21;7.60;;;5.40;;
26486;SDS011;14425;56.136;40.360;2023-04-24T01:34:47;8.02;;;5.93;;
26486;SDS011;14425;56.136;40.360;2023-04-24T01:37:13;8.70;;;5.63;;
26486;SDS011;14425;56.136;40.360;2023-04-24T01:39:39;13.75;;;6.65;;
26486;SDS011;14425;56.136;40.360;2023-04-24T01:42:05;9.60;;;6.50;;
26486;SDS011;14425;56.136;40.360;2023-04-24T01:44:31;8.18;;;5.60;;
26486;SDS011;14425;56.136;40.360;2023-04-24T01:46:56;7.40;;;5.80;;
26486;SDS011;14425;56.136;40.360;2023-04-24T01:49:22;9.30;;;6.30;;
26486;SDS011;14425;56.136;40.360;2023-04-24T01:51:48;7.90;;;6.53;;
26486;SDS011;14425;56.136;40.360;2023-04-24T01:54:14;7.60;;;5.75;;
26486;SDS011;14425;56.136;40.360;2023-04-24T01:56:40;25.85;;;6.45;;
26486;SDS011;14425;56.136;40.360;2023-04-24T01:59:08;9.40;;;6.10;;
26486;SDS011;14425;56.136;40.360;2023-04-24T02:01:36;10.48;;;6.60;;
26486;SDS011;14425;56.136;40.360;2023-04-24T02:04:02;11.57;;;6.25;;
26486;SDS011;14425;56.136;40.360;2023-04-24T02:06:29;9.27;;;6.10;;
26486;SDS011;14425;56.136;40.360;2023-04-24T02:08:56;9.75;;;6.03;;
26486;SDS011;14425;56.136;40.360;2023-04-24T02:11:23;11.05;;;5.75;;
26486;SDS011;14425;56.136;40.360;2023-04-24T02:13:49;6.50;;;5.30;;
26486;SDS011;14425;56.136;40.360;2023-04-24T02:16:15;12.60;;;6.20;;
26486;SDS011;14425;56.136;40.360;2023-04-24T02:19:01;8.15;;;5.57;;
26486;SDS011;14425;56.136;40.360;2023-04-24T02:21:27;7.15;;;5.63;;
26486;SDS011;14425;56.136;40.360;2023-04-24T02:23:53;10.85;;;5.95;;
26486;SDS011;14425;56.136;40.360;2023-04-24T02:26:19;9.98;;;6.00;;
26486;SDS011;14425;56.136;40.360;2023-04-24T02:28:45;8.82;;;5.82;;
26486;SDS011;14425;56.136;40.360;2023-04-24T02:31:10;8.23;;;6.03;;
26486;SDS011;14425;56.136;40.360;2023-04-24T02:33:36;6.80;;;6.10;;
26486;SDS011;14425;56.136;40.360;2023-04-24T02:36:02;7.63;;;6.32;;
26486;SDS011;14425;56.136;40.360;2023-04-24T02:38:28;10.60;;;5.65;;
26486;SDS011;14425;56.136;40.360;2023-04-24T02:40:54;7.82;;;5.70;;
26486;SDS011;14425;56.136;40.360;2023-04-24T02:43:20;7.40;;;6.18;;
26486;SDS011;14425;56.136;40.360;2023-04-24T02:45:45;9.07;;;5.70;;
26486;SDS011;14425;56.136;40.360;2023-04-24T02:48:11;9.80;;;6.00;;
26486;SDS011;14425;56.136;40.360;2023-04-24T02:50:37;11.57;;;5.93;;
26486;SDS011;14425;56.136;40.360;2023-04-24T02:53:02;8.57;;;5.93;;
26486;SDS011;14425;56.136;40.360;2023-04-24T02:55:28;7.40;;;5.65;;
26486;SDS011;14425;56.136;40.360;2023-04-24T02:57:54;8.10;;;5.57;;
26486;SDS011;14425;56.136;40.360;2023-04-24T03:00:20;10.23;;;6.38;;
26486;SDS011;14425;56.136;40.360;2023-04-24T03:02:45;7.97;;;5.88;;
26486;SDS011;14425;56.136;40.360;2023-04-24T03:05:11;8.43;;;5.30;;
26486;SDS011;14425;56.136;40.360;2023-04-24T03:07:39;11.52;;;5.30;;
26486;SDS011;14425;56.136;40.360;2023-04-24T03:10:05;7.60;;;5.40;;
26486;SDS011;14425;56.136;40.360;2023-04-24T03:12:32;8.68;;;5.53;;
26486;SDS011;14425;56.136;40.360;2023-04-24T03:14:57;6.93;;;5.82;;
26486;SDS011;14425;56.136;40.360;2023-04-24T03:17:23;10.07;;;6.03;;
26486;SDS011;14425;56.136;40.360;2023-04-24T03:19:48;8.52;;;5.95;;
26486;SDS011;14425;56.136;40.360;2023-04-24T03:22:14;12.15;;;5.78;;
26486;SDS011;14425;56.136;40.360;2023-04-24T03:24:39;8.27;;;5.47;;
26486;SDS011;14425;56.136;40.360;2023-04-24T03:27:05;10.07;;;6.13;;
26486;SDS011;14425;56.136;40.360;2023-04-24T03:29:31;9.30;;;5.15;;
26486;SDS011;14425;56.136;40.360;2023-04-24T03:31:56;8.25;;;5.78;;
26486;SDS011;14425;56.136;40.360;2023-04-24T03:34:22;8.45;;;6.00;;
26486;SDS011;14425;56.136;40.360;2023-04-24T03:36:47;5.95;;;5.20;;
26486;SDS011;14425;56.136;40.360;2023-04-24T03:39:13;10.30;;;5.68;;
26486;SDS011;14425;56.136;40.360;2023-04-24T03:41:38;11.05;;;6.28;;
26486;SDS011;14425;56.136;40.360;2023-04-24T03:44:04;7.95;;;5.47;;
26486;SDS011;14425;56.136;40.360;2023-04-24T03:46:29;10.85;;;6.18;;
26486;SDS011;14425;56.136;40.360;2023-04-24T03:48:55;11.00;;;5.60;;
26486;SDS011;14425;56.136;40.360;2023-04-24T03:51:21;8.98;;;5.60;;
26486;SDS011;14425;56.136;40.360;2023-04-24T03:53:48;9.13;;;5.97;;
26486;SDS011;14425;56.136;40.360;2023-04-24T03:56:14;12.15;;;5.95;;
26486;SDS011;14425;56.136;40.360;2023-04-24T03:58:40;12.65;;;5.93;;
26486;SDS011;14425;56.136;40.360;2023-04-24T04:01:05;8.57;;;5.50;;
26486;SDS011;14425;56.136;40.360;2023-04-24T04:03:31;14.07;;;6.55;;
26486;SDS011;14425;56.136;40.360;2023-04-24T04:05:57;14.30;;;5.95;;
26486;SDS011;14425;56.136;40.360;2023-04-24T04:08:23;14.13;;;5.72;;
26486;SDS011;14425;56.136;40.360;2023-04-24T04:10:48;8.82;;;5.28;;
26486;SDS011;14425;56.136;40.360;2023-04-24T04:13:14;10.77;;;5.72;;
26486;SDS011;14425;56.136;40.360;2023-04-24T04:15:39;16.95;;;7.07;;
26486;SDS011;14425;56.136;40.360;2023-04-24T04:18:05;9.15;;;6.15;;
26486;SDS011;14425;56.136;40.360;2023-04-24T04:20:31;7.95;;;5.15;;
26486;SDS011;14425;56.136;40.360;2023-04-24T04:22:56;11.80;;;5.68;;
26486;SDS011;14425;56.136;40.360;2023-04-24T04:25:22;7.72;;;5.60;;
26486;SDS011;14425;56.136;40.360;2023-04-24T04:27:48;12.60;;;5.53;;
26486;SDS011;14425;56.136;40.360;2023-04-24T04:30:14;8.00;;;5.70;;
26486;SDS011;14425;56.136;40.360;2023-04-24T04:32:40;11.63;;;6.65;;
26486;SDS011;14425;56.136;40.360;2023-04-24T04:35:05;9.68;;;5.90;;
26486;SDS011;14425;56.136;40.360;2023-04-24T04:37:34;10.57;;;6.13;;
26486;SDS011;14425;56.136;40.360;2023-04-24T04:40:01;8.30;;;5.38;;
26486;SDS011;14425;56.136;40.360;2023-04-24T04:42:31;9.27;;;5.30;;
26486;SDS011;14425;56.136;40.360;2023-04-24T04:44:59;8.90;;;5.50;;
26486;SDS011;14425;56.136;40.360;2023-04-24T04:47:25;11.48;;;5.47;;
26486;SDS011;14425;56.136;40.360;2023-04-24T04:49:52;10.73;;;6.13;;
26486;SDS011;14425;56.136;40.360;2023-04-24T04:52:18;15.77;;;6.40;;
26486;SDS011;14425;56.136;40.360;2023-04-24T04:54:43;23.77;;;6.15;;
26486;SDS011;14425;56.136;40.360;2023-04-24T04:57:10;12.30;;;6.50;;
26486;SDS011;14425;56.136;40.360;2023-04-24T04:59:35;8.95;;;6.00;;
26486;SDS011;14425;56.136;40.360;2023-04-24T05:02:02;15.55;;;5.93;;
26486;SDS011;14425;56.136;40.360;2023-04-24T05:04:28;17.02;;;6.80;;
26486;SDS011;14425;56.136;40.360;2023-04-24T05:06:53;17.60;;;7.18;;
26486;SDS011;14425;56.136;40.360;2023-04-24T05:09:19;9.13;;;6.10;;
26486;SDS011;14425;56.136;40.360;2023-04-24T05:11:44;15.93;;;6.75;;
26486;SDS011;14425;56.136;40.360;2023-04-24T05:14:10;13.63;;;6.47;;
26486;SDS011;14425;56.136;40.360;2023-04-24T05:16:37;11.23;;;7.13;;
26486;SDS011;14425;56.136;40.360;2023-04-24T05:19:03;10.30;;;7.05;;
26486;SDS011;14425;56.136;40.360;2023-04-24T05:21:29;10.55;;;6.10;;
26486;SDS011;14425;56.136;40.360;2023-04-24T05:23:55;13.80;;;6.07;;
26486;SDS011;14425;56.136;40.360;2023-04-24T05:26:21;14.85;;;5.40;;
26486;SDS011;14425;56.136;40.360;2023-04-24T05:28:48;8.57;;;5.22;;
26486;SDS011;14425;56.136;40.360;2023-04-24T05:31:13;12.00;;;5.95;;
26486;SDS011;14425;56.136;40.360;2023-04-24T05:33:39;11.18;;;5.45;;
26486;SDS011;14425;56.136;40.360;2023-04-24T05:36:05;6.15;;;4.30;;
26486;SDS011;14425;56.136;40.360;2023-04-24T05:38:31;12.57;;;5.18;;
26486;SDS011;14425;56.136;40.360;2023-04-24T05:40:57;17.38;;;5.25;;
26486;SDS011;14425;56.136;40.360;2023-04-24T05:43:22;10.45;;;5.15;;
26486;SDS011;14425;56.136;40.360;2023-04-24T05:45:48;11.60;;;5.60;;
26486;SDS011;14425;56.136;40.360;2023-04-24T05:48:13;6.28;;;4.75;;
26486;SDS011;14425;56.136;40.360;2023-04-24T05:50:39;11.90;;;4.95;;
26486;SDS011;14425;56.136;40.360;2023-04-24T05:53:05;6.15;;;4.40;;
26486;SDS011;14425;56.136;40.360;2023-04-24T05:55:32;6.75;;;4.53;;
26486;SDS011;14425;56.136;40.360;2023-04-24T05:57:57;8.13;;;4.68;;
26486;SDS011;14425;56.136;40.360;2023-04-24T06:00:24;11.07;;;4.40;;
26486;SDS011;14425;56.136;40.360;2023-04-24T06:02:50;9.70;;;4.28;;
26486;SDS011;14425;56.136;40.360;2023-04-24T06:05:17;7.10;;;4.35;;
26486;SDS011;14425;56.136;40.360;2023-04-24T06:07:43;11.65;;;5.35;;
26486;SDS011;14425;56.136;40.360;2023-04-24T06:10:10;7.13;;;4.05;;
26486;SDS011;14425;56.136;40.360;2023-04-24T06:12:35;7.22;;;4.50;;
26486;SDS011;14425;56.136;40.360;2023-04-24T06:15:01;7.40;;;4.28;;
26486;SDS011;14425;56.136;40.360;2023-04-24T06:17:30;6.75;;;3.97;;
26486;SDS011;14425;56.136;40.360;2023-04-24T06:19:56;8.95;;;4.55;;
26486;SDS011;14425;56.136;40.360;2023-04-24T06:22:21;9.75;;;4.65;;
26486;SDS011;14425;56.136;40.360;2023-04-24T06:24:47;10.38;;;4.85;;
26486;SDS011;14425;56.136;40.360;2023-04-24T06:27:13;6.82;;;4.07;;
26486;SDS011;14425;56.136;40.360;2023-04-24T06:29:39;14.90;;;4.80;;
26486;SDS011;14425;56.136;40.360;2023-04-24T06:32:05;10.82;;;4.93;;
26486;SDS011;14425;56.136;40.360;2023-04-24T06:34:30;9.20;;;4.18;;
26486;SDS011;14425;56.136;40.360;2023-04-24T06:36:57;4.95;;;3.75;;
26486;SDS011;14425;56.136;40.360;2023-04-24T06:39:23;8.25;;;3.75;;
26486;SDS011;14425;56.136;40.360;2023-04-24T06:41:49;6.05;;;4.63;;
26486;SDS011;14425;56.136;40.360;2023-04-24T06:44:15;5.35;;;3.67;;
26486;SDS011;14425;56.136;40.360;2023-04-24T06:46:40;6.18;;;4.13;;
26486;SDS011;14425;56.136;40.360;2023-04-24T06:49:06;8.02;;;3.70;;
26486;SDS011;14425;56.136;40.360;2023-04-24T06:51:32;8.32;;;3.92;;
26486;SDS011;14425;56.136;40.360;2023-04-24T06:53:58;6.30;;;3.60;;
26486;SDS011;14425;56.136;40.360;2023-04-24T06:56:24;8.70;;;4.38;;
26486;SDS011;14425;56.136;40.360;2023-04-24T06:58:50;6.95;;;3.53;;
26486;SDS011;14425;56.136;40.360;2023-04-24T07:01:16;5.47;;;3.60;;
26486;SDS011;14425;56.136;40.360;2023-04-24T07:03:42;8.93;;;4.28;;
26486;SDS011;14425;56.136;40.360;2023-04-24T07:06:08;7.20;;;3.70;;
26486;SDS011;14425;56.136;40.360;2023-04-24T07:08:36;5.13;;;3.60;;
26486;SDS011;14425;56.136;40.360;2023-04-24T07:11:01;8.38;;;3.50;;
26486;SDS011;14425;56.136;40.360;2023-04-24T07:13:27;7.55;;;3.33;;
26486;SDS011;14425;56.136;40.360;2023-04-24T07:15:53;6.70;;;3.60;;
26486;SDS011;14425;56.136;40.360;2023-04-24T07:18:21;5.50;;;3.55;;
26486;SDS011;14425;56.136;40.360;2023-04-24T07:20:47;6.07;;;4.55;;
26486;SDS011;14425;56.136;40.360;2023-04-24T07:23:12;4.63;;;3.20;;
26486;SDS011;14425;56.136;40.360;2023-04-24T07:25:38;5.57;;;3.33;;
26486;SDS011;14425;56.136;40.360;2023-04-24T07:28:04;5.78;;;3.30;;
26486;SDS011;14425;56.136;40.360;2023-04-24T07:30:30;4.40;;;3.42;;
26486;SDS011;14425;56.136;40.360;2023-04-24T07:32:58;5.10;;;3.40;;
26486;SDS011;14425;56.136;40.360;2023-04-24T07:35:23;3.97;;;3.15;;
26486;SDS011;14425;56.136;40.360;2023-04-24T07:37:51;5.38;;;3.30;;
26486;SDS011;14425;56.136;40.360;2023-04-24T07:40:17;5.45;;;4.60;;
26486;SDS011;14425;56.136;40.360;2023-04-24T07:42:45;8.30;;;4.90;;
26486;SDS011;14425;56.136;40.360;2023-04-24T07:45:13;21.85;;;5.63;;
26486;SDS011;14425;56.136;40.360;2023-04-24T07:47:39;5.72;;;3.63;;
26486;SDS011;14425;56.136;40.360;2023-04-24T07:50:09;5.30;;;3.50;;
26486;SDS011;14425;56.136;40.360;2023-04-24T07:52:35;8.05;;;3.47;;
26486;SDS011;14425;56.136;40.360;2023-04-24T07:55:01;4.90;;;2.78;;
26486;SDS011;14425;56.136;40.360;2023-04-24T07:57:31;10.75;;;4.30;;
26486;SDS011;14425;56.136;40.360;2023-04-24T07:59:57;5.47;;;3.25;;
26486;SDS011;14425;56.136;40.360;2023-04-24T08:02:22;6.43;;;3.22;;
26486;SDS011;14425;56.136;40.360;2023-04-24T08:04:54;4.53;;;2.67;;
26486;SDS011;14425;56.136;40.360;2023-04-24T08:07:20;11.57;;;4.93;;
26486;SDS011;14425;56.136;40.360;2023-04-24T08:09:47;7.63;;;4.47;;
26486;SDS011;14425;56.136;40.360;2023-04-24T08:12:13;3.80;;;3.13;;
26486;SDS011;14425;56.136;40.360;2023-04-24T08:14:39;3.60;;;3.15;;
26486;SDS011;14425;56.136;40.360;2023-04-24T08:17:04;6.18;;;3.33;;
26486;SDS011;14425;56.136;40.360;2023-04-24T08:19:30;5.15;;;3.40;;
26486;SDS011;14425;56.136;40.360;2023-04-24T08:21:55;4.97;;;3.08;;
26486;SDS011;14425;56.136;40.360;2023-04-24T08:24:21;5.50;;;2.85;;
26486;SDS011;14425;56.136;40.360;2023-04-24T08:26:47;6.45;;;2.88;;
26486;SDS011;14425;56.136;40.360;2023-04-24T08:29:17;6.47;;;3.50;;
26486;SDS011;14425;56.136;40.360;2023-04-24T08:31:42;3.35;;;2.42;;
26486;SDS011;14425;56.136;40.360;2023-04-24T08:34:09;4.93;;;3.28;;
26486;SDS011;14425;56.136;40.360;2023-04-24T08:36:35;6.05;;;3.88;;
26486;SDS011;14425;56.136;40.360;2023-04-24T08:39:02;16.27;;;4.05;;
26486;SDS011;14425;56.136;40.360;2023-04-24T08:41:27;8.82;;;3.47;;
26486;SDS011;14425;56.136;40.360;2023-04-24T08:43:53;10.20;;;3.50;;
26486;SDS011;14425;56.136;40.360;2023-04-24T08:46:20;4.82;;;2.75;;
26486;SDS011;14425;56.136;40.360;2023-04-24T08:48:46;8.15;;;3.17;;
26486;SDS011;14425;56.136;40.360;2023-04-24T08:51:12;4.60;;;2.80;;
26486;SDS011;14425;56.136;40.360;2023-04-24T08:53:37;4.32;;;3.05;;
26486;SDS011;14425;56.136;40.360;2023-04-24T08:56:03;3.28;;;2.58;;
26486;SDS011;14425;56.136;40.360;2023-04-24T08:58:29;5.55;;;3.10;;
26486;SDS011;14425;56.136;40.360;2023-04-24T09:00:56;5.55;;;2.97;;
26486;SDS011;14425;56.136;40.360;2023-04-24T09:03:22;4.90;;;2.88;;
26486;SDS011;14425;56.136;40.360;2023-04-24T09:05:49;9.18;;;3.40;;
26486;SDS011;14425;56.136;40.360;2023-04-24T09:08:19;7.10;;;3.00;;
26486;SDS011;14425;56.136;40.360;2023-04-24T09:10:46;8.35;;;2.85;;
26486;SDS011;14425;56.136;40.360;2023-04-24T09:13:11;5.13;;;2.60;;
26486;SDS011;14425;56.136;40.360;2023-04-24T09:15:37;4.82;;;2.72;;
26486;SDS011;14425;56.136;40.360;2023-04-24T09:18:04;3.55;;;2.95;;
26486;SDS011;14425;56.136;40.360;2023-04-24T09:20:30;4.13;;;3.20;;
26486;SDS011;14425;56.136;40.360;2023-04-24T09:22:56;4.75;;;2.83;;
26486;SDS011;14425;56.136;40.360;2023-04-24T09:25:23;3.17;;;2.85;;
26486;SDS011;14425;56.136;40.360;2023-04-24T09:27:59;5.78;;;2.88;;
26486;SDS011;14425;56.136;40.360;2023-04-24T09:30:25;5.88;;;3.40;;
26486;SDS011;14425;56.136;40.360;2023-04-24T09:32:58;4.13;;;2.97;;
26486;SDS011;14425;56.136;40.360;2023-04-24T09:35:35;4.38;;;3.15;;
26486;SDS011;14425;56.136;40.360;2023-04-24T09:38:00;10.75;;;3.53;;
26486;SDS011;14425;56.136;40.360;2023-04-24T09:40:26;4.38;;;2.90;;
26486;SDS011;14425;56.136;40.360;2023-04-24T09:42:52;6.68;;;2.10;;
26486;SDS011;14425;56.136;40.360;2023-04-24T09:45:27;3.67;;;3.10;;
26486;SDS011;14425;56.136;40.360;2023-04-24T09:48:02;3.85;;;2.90;;
26486;SDS011;14425;56.136;40.360;2023-04-24T09:50:30;3.65;;;2.75;;
26486;SDS011;14425;56.136;40.360;2023-04-24T09:55:29;5.70;;;4.25;;
26486;SDS011;14425;56.136;40.360;2023-04-24T09:57:55;4.75;;;3.47;;
26486;SDS011;14425;56.136;40.360;2023-04-24T10:00:31;4.22;;;3.50;;
26486;SDS011;14425;56.136;40.360;2023-04-24T10:02:58;5.82;;;3.20;;
26486;SDS011;14425;56.136;40.360;2023-04-24T10:05:29;4.95;;;3.33;;
26486;SDS011;14425;56.136;40.360;2023-04-24T10:07:57;4.78;;;3.08;;
26486;SDS011;14425;56.136;40.360;2023-04-24T10:10:33;5.97;;;2.90;;
26486;SDS011;14425;56.136;40.360;2023-04-24T10:13:01;6.72;;;3.30;;
26486;SDS011;14425;56.136;40.360;2023-04-24T10:15:28;5.70;;;3.03;;
26486;SDS011;14425;56.136;40.360;2023-04-24T10:17:53;5.47;;;2.80;;
26486;SDS011;14425;56.136;40.360;2023-04-24T10:20:24;5.75;;;3.25;;
26486;SDS011;14425;56.136;40.360;2023-04-24T10:22:52;8.75;;;3.10;;
26486;SDS011;14425;56.136;40.360;2023-04-24T10:25:20;5.72;;;3.25;;
26486;SDS011;14425;56.136;40.360;2023-04-24T10:27:48;5.18;;;2.67;;
26486;SDS011;14425;56.136;40.360;2023-04-24T10:30:15;5.45;;;3.10;;
26486;SDS011;14425;56.136;40.360;2023-04-24T10:32:42;4.05;;;3.60;;
26486;SDS011;14425;56.136;40.360;2023-04-24T10:35:08;6.35;;;3.47;;
26486;SDS011;14425;56.136;40.360;2023-04-24T10:37:35;9.18;;;7.07;;
26486;SDS011;14425;56.136;40.360;2023-04-24T10:40:07;6.38;;;3.42;;
26486;SDS011;14425;56.136;40.360;2023-04-24T10:42:40;4.17;;;2.93;;
26486;SDS011;14425;56.136;40.360;2023-04-24T10:45:16;4.22;;;3.08;;
26486;SDS011;14425;56.136;40.360;2023-04-24T10:50:18;9.80;;;3.03;;
26486;SDS011;14425;56.136;40.360;2023-04-24T10:52:44;5.15;;;3.03;;
26486;SDS011;14425;56.136;40.360;2023-04-24T10:55:12;32.65;;;4.90;;
26486;SDS011;14425;56.136;40.360;2023-04-24T10:57:39;7.35;;;6.60;;
26486;SDS011;14425;56.136;40.360;2023-04-24T11:02:41;4.63;;;3.10;;
26486;SDS011;14425;56.136;40.360;2023-04-24T11:05:17;4.95;;;3.20;;
26486;SDS011;14425;56.136;40.360;2023-04-24T11:10:47;6.20;;;3.40;;
26486;SDS011;14425;56.136;40.360;2023-04-24T11:13:23;4.95;;;3.03;;
26486;SDS011;14425;56.136;40.360;2023-04-24T11:24:21;6.82;;;4.78;;
26486;SDS011;14425;56.136;40.360;2023-04-24T11:29:48;4.40;;;3.05;;
26486;SDS011;14425;56.136;40.360;2023-04-24T11:37:21;5.82;;;3.78;;
26486;SDS011;14425;56.136;40.360;2023-04-24T11:39:52;5.72;;;3.63;;
26486;SDS011;14425;56.136;40.360;2023-04-24T11:42:22;4.05;;;3.60;;
26486;SDS011;14425;56.136;40.360;2023-04-24T11:44:49;4.97;;;4.13;;
26486;SDS011;14425;56.136;40.360;2023-04-24T11:47:17;9.00;;;5.00;;
26486;SDS011;14425;56.136;40.360;2023-04-24T11:49:43;14.93;;;8.93;;
26486;SDS011;14425;56.136;40.360;2023-04-24T11:52:09;12.98;;;9.25;;
26486;SDS011;14425;56.136;40.360;2023-04-24T11:54:35;7.65;;;4.72;;
26486;SDS011;14425;56.136;40.360;2023-04-24T11:57:05;4.32;;;3.45;;
26486;SDS011;14425;56.136;40.360;2023-04-24T11:59:37;6.27;;;4.00;;
26486;SDS011;14425;56.136;40.360;2023-04-24T12:02:03;6.10;;;4.68;;
26486;SDS011;14425;56.136;40.360;2023-04-24T12:04:38;3.97;;;3.58;;
26486;SDS011;14425;56.136;40.360;2023-04-24T12:07:05;4.93;;;3.40;;
26486;SDS011;14425;56.136;40.360;2023-04-24T12:09:45;6.88;;;3.30;;
26486;SDS011;14425;56.136;40.360;2023-04-24T12:12:13;5.57;;;3.80;;
26486;SDS011;14425;56.136;40.360;2023-04-24T12:17:09;5.20;;;3.83;;
26486;SDS011;14425;56.136;40.360;2023-04-24T12:19:35;8.98;;;5.65;;
26486;SDS011;14425;56.136;40.360;2023-04-24T12:22:01;8.15;;;5.22;;
26486;SDS011;14425;56.136;40.360;2023-04-24T12:24:28;9.55;;;3.80;;
26486;SDS011;14425;56.136;40.360;2023-04-24T12:26:55;6.35;;;3.88;;
26486;SDS011;14425;56.136;40.360;2023-04-24T12:29:21;9.85;;;3.38;;
26486;SDS011;14425;56.136;40.360;2023-04-24T12:31:47;4.20;;;3.22;;
26486;SDS011;14425;56.136;40.360;2023-04-24T12:34:19;10.55;;;5.05;;
26486;SDS011;14425;56.136;40.360;2023-04-24T12:36:46;5.85;;;3.60;;
26486;SDS011;14425;56.136;40.360;2023-04-24T12:39:16;4.00;;;3.47;;
26486;SDS011;14425;56.136;40.360;2023-04-24T12:41:50;6.53;;;3.17;;
26486;SDS011;14425;56.136;40.360;2023-04-24T12:44:19;4.22;;;3.42;;
26486;SDS011;14425;56.136;40.360;2023-04-24T12:46:45;5.68;;;3.67;;
26486;SDS011;14425;56.136;40.360;2023-04-24T12:49:10;5.28;;;3.90;;
26486;SDS011;14425;56.136;40.360;2023-04-24T12:51:36;6.15;;;3.85;;
26486;SDS011;14425;56.136;40.360;2023-04-24T12:54:04;5.47;;;3.40;;
26486;SDS011;14425;56.136;40.360;2023-04-24T12:56:30;4.70;;;3.33;;
26486;SDS011;14425;56.136;40.360;2023-04-24T12:58:56;6.05;;;3.50;;
26486;SDS011;14425;56.136;40.360;2023-04-24T13:01:22;4.88;;;3.58;;
26486;SDS011;14425;56.136;40.360;2023-04-24T13:03:47;3.53;;;3.10;;
26486;SDS011;14425;56.136;40.360;2023-04-24T13:06:13;4.65;;;3.35;;
26486;SDS011;14425;56.136;40.360;2023-04-24T13:08:38;3.40;;;2.55;;
26486;SDS011;14425;56.136;40.360;2023-04-24T13:11:04;5.55;;;2.92;;
26486;SDS011;14425;56.136;40.360;2023-04-24T13:13:30;4.80;;;2.85;;
26486;SDS011;14425;56.136;40.360;2023-04-24T13:15:56;4.18;;;3.10;;
26486;SDS011;14425;56.136;40.360;2023-04-24T13:18:21;7.13;;;3.20;;
26486;SDS011;14425;56.136;40.360;2023-04-24T13:20:47;5.97;;;3.05;;
26486;SDS011;14425;56.136;40.360;2023-04-24T13:23:13;4.72;;;2.90;;
26486;SDS011;14425;56.136;40.360;2023-04-24T13:25:38;3.47;;;2.80;;
26486;SDS011;14425;56.136;40.360;2023-04-24T13:28:04;3.00;;;2.67;;
26486;SDS011;14425;56.136;40.360;2023-04-24T13:30:29;24.52;;;5.82;;
26486;SDS011;14425;56.136;40.360;2023-04-24T13:32:56;7.95;;;2.83;;
26486;SDS011;14425;56.136;40.360;2023-04-24T13:35:22;2.85;;;2.35;;
26486;SDS011;14425;56.136;40.360;2023-04-24T13:37:47;4.10;;;2.55;;
26486;SDS011;14425;56.136;40.360;2023-04-24T13:40:13;4.85;;;2.78;;
26486;SDS011;14425;56.136;40.360;2023-04-24T13:42:41;6.32;;;2.67;;
26486;SDS011;14425;56.136;40.360;2023-04-24T13:45:08;4.20;;;2.45;;
26486;SDS011;14425;56.136;40.360;2023-04-24T13:47:34;6.65;;;2.75;;
26486;SDS011;14425;56.136;40.360;2023-04-24T13:50:01;4.90;;;2.38;;
26486;SDS011;14425;56.136;40.360;2023-04-24T13:52:31;8.88;;;2.55;;
26486;SDS011;14425;56.136;40.360;2023-04-24T13:54:57;10.35;;;2.55;;
26486;SDS011;14425;56.136;40.360;2023-04-24T13:57:22;5.97;;;2.70;;
26486;SDS011;14425;56.136;40.360;2023-04-24T13:59:48;3.53;;;2.38;;
26486;SDS011;14425;56.136;40.360;2023-04-24T14:02:14;3.75;;;2.78;;
26486;SDS011;14425;56.136;40.360;2023-04-24T14:04:39;4.30;;;2.63;;
26486;SDS011;14425;56.136;40.360;2023-04-24T14:07:05;3.35;;;2.13;;
26486;SDS011;14425;56.136;40.360;2023-04-24T14:09:31;5.32;;;2.50;;
26486;SDS011;14425;56.136;40.360;2023-04-24T14:11:56;6.50;;;2.78;;
26486;SDS011;14425;56.136;40.360;2023-04-24T14:14:22;8.23;;;2.45;;
26486;SDS011;14425;56.136;40.360;2023-04-24T14:16:48;11.00;;;2.45;;
26486;SDS011;14425;56.136;40.360;2023-04-24T14:19:13;8.23;;;2.50;;
26486;SDS011;14425;56.136;40.360;2023-04-24T14:21:39;4.25;;;2.50;;
26486;SDS011;14425;56.136;40.360;2023-04-24T14:24:05;4.85;;;3.00;;
26486;SDS011;14425;56.136;40.360;2023-04-24T14:26:31;5.07;;;2.22;;
26486;SDS011;14425;56.136;40.360;2023-04-24T14:28:57;6.53;;;2.42;;
26486;SDS011;14425;56.136;40.360;2023-04-24T14:31:24;13.15;;;2.80;;
26486;SDS011;14425;56.136;40.360;2023-04-24T14:33:49;6.35;;;2.70;;
26486;SDS011;14425;56.136;40.360;2023-04-24T14:36:15;18.33;;;4.93;;
26486;SDS011;14425;56.136;40.360;2023-04-24T14:38:40;14.52;;;3.95;;
26486;SDS011;14425;56.136;40.360;2023-04-24T14:41:06;14.88;;;4.43;;
26486;SDS011;14425;56.136;40.360;2023-04-24T14:43:35;11.43;;;3.83;;
26486;SDS011;14425;56.136;40.360;2023-04-24T14:46:01;17.48;;;4.75;;
26486;SDS011;14425;56.136;40.360;2023-04-24T14:48:27;12.43;;;2.90;;
26486;SDS011;14425;56.136;40.360;2023-04-24T14:50:53;9.48;;;3.72;;
26486;SDS011;14425;56.136;40.360;2023-04-24T14:53:18;13.27;;;3.97;;
26486;SDS011;14425;56.136;40.360;2023-04-24T14:55:44;12.35;;;3.20;;
26486;SDS011;14425;56.136;40.360;2023-04-24T14:58:10;8.35;;;2.30;;